Hlavní strana
METAR-TAF:

METAR-TAF

Letiště :

Hassi Messaoud, Alžírsko

zeměpisná šířka: 31-40N, zeměpisná délka: 006-09E, výška: 142 m

Aktuální stav počasí

Zpráva byla vytvořena před 15 minutami, v 16:00 UTC
Východní vítr 14 kt
Teplota 26°C
Vlhkost vzduchu 13%
Tlak 1016 hPa
Viditelnost 10 km a více
Žádná oblačnost pod 1500 m, nevyskytují se cumulonimby.

METAR: DAUH 281600Z 10014KT CAVOK 26/M05 Q1016

Čas: 17:15 (16:15 UTC)

Předpověď počasí

Zpráva byla vytvořena před 5 hodinami a 15 minutami, v 11:00 UTC
Předpověď platná od 28 v 12 UTC do 01 v 12 UTC
Východní vítr 14 kt
Viditelnost: 8000 m
Pravděpodobnost 30% :
Dočasný
od 28 v 13 UTC do 28 v 18 UTC
Jihovýchodní vítr 24 kt
Viditelnost: 3000 m
nízko zvířený písek

TAF: DAUH 281100Z 2812/0112 10014KT 8000 NSC PROB30 TEMPO 2813/2818 14024KT 3000 DRSA

Stav a předpovědi počasí z více než 4 000 letišť (zprávy METAR a TAF).

Červené a žluté tečky na mapě představují dostupné meteorologické stanice.

Když kurzor umístíte na tečku, zobrazí se název stanice.

Pak kliknutím zobrazíte stav a předpověď počasí.

Chcete-li změnit mapu, kliknutím na zelené tlačítko se znaménkem +mapu přiblížíte, kliknutím na zelené tlačítko se znaménkem – mapu oddálíte a kliknutím na zelené šipky přejdete na sousední mapy.


METAR-TAF: